createdAt,value
2022-11-12T00:00:52.582Z,6.57
2022-11-12T00:03:20.048Z,6.27
2022-11-12T00:05:47.120Z,6.87
2022-11-12T00:08:13.950Z,6.83
2022-11-12T00:10:40.604Z,6.97
2022-11-12T00:13:07.404Z,6.23
2022-11-12T00:15:34.262Z,6.20
2022-11-12T00:18:00.958Z,5.53
2022-11-12T00:20:27.663Z,5.97
2022-11-12T00:22:54.398Z,6.57
2022-11-12T00:25:21.237Z,6.03
2022-11-12T00:27:47.925Z,6.03
2022-11-12T00:30:14.684Z,6.10
2022-11-12T00:32:41.480Z,6.10
2022-11-12T00:35:12.636Z,6.60
2022-11-12T00:37:40.986Z,5.67
2022-11-12T00:40:08.657Z,7.50
2022-11-12T00:42:35.340Z,5.33
2022-11-12T00:45:02.069Z,6.20
2022-11-12T00:47:28.820Z,6.13
2022-11-12T00:49:55.660Z,6.07
2022-11-12T00:52:22.494Z,6.17
2022-11-12T00:54:49.195Z,6.00
2022-11-12T00:57:15.884Z,6.90
2022-11-12T00:59:42.639Z,6.43
2022-11-12T01:02:09.418Z,5.40
2022-11-12T01:04:36.195Z,5.07
2022-11-12T01:07:03.085Z,5.60
2022-11-12T01:09:29.908Z,4.73
2022-11-12T01:11:56.612Z,6.07
2022-11-12T01:14:23.397Z,5.50
2022-11-12T01:16:50.157Z,5.87
2022-11-12T01:19:16.913Z,6.50
2022-11-12T01:21:44.464Z,6.30
2022-11-12T01:24:11.701Z,6.17
2022-11-12T01:26:39.145Z,5.60
2022-11-12T01:29:06.252Z,5.70
2022-11-12T01:31:35.857Z,4.97
2022-11-12T01:34:07.058Z,5.47
2022-11-12T01:36:36.949Z,5.77
2022-11-12T01:39:06.314Z,6.40
2022-11-12T01:41:35.826Z,5.80
2022-11-12T01:44:15.192Z,6.00
2022-11-12T01:46:55.668Z,5.70
2022-11-12T01:49:31.616Z,5.97
2022-11-12T01:52:26.278Z,5.37
2022-11-12T01:54:58.497Z,5.30
2022-11-12T01:57:37.203Z,5.37
2022-11-12T02:00:10.636Z,5.33
2022-11-12T02:02:38.920Z,5.50
2022-11-12T02:05:08.958Z,5.70
2022-11-12T02:07:38.820Z,5.07
2022-11-12T02:10:07.880Z,5.50
2022-11-12T02:12:53.260Z,5.27
2022-11-12T02:15:20.385Z,5.23
2022-11-12T02:17:47.183Z,5.87
2022-11-12T02:20:15.298Z,5.00
2022-11-12T02:22:42.078Z,5.20
2022-11-12T02:25:13.626Z,5.03
2022-11-12T02:27:40.573Z,5.60
2022-11-12T02:30:07.965Z,5.07
2022-11-12T02:32:34.870Z,5.43
2022-11-12T02:35:01.548Z,5.60
2022-11-12T02:37:28.272Z,5.47
2022-11-12T02:39:54.964Z,5.30
2022-11-12T02:42:21.660Z,6.03
2022-11-12T02:44:48.562Z,5.60
2022-11-12T02:47:15.315Z,5.47
2022-11-12T02:49:42.067Z,5.27
2022-11-12T02:52:08.718Z,6.17
2022-11-12T02:54:35.428Z,5.10
2022-11-12T02:57:02.162Z,5.23
2022-11-12T02:59:28.827Z,5.67
2022-11-12T03:01:55.618Z,5.27
2022-11-12T03:04:22.343Z,5.63
2022-11-12T03:06:49.174Z,5.37
2022-11-12T03:09:15.883Z,5.10
2022-11-12T03:11:42.541Z,5.27
2022-11-12T03:14:09.296Z,5.17
2022-11-12T03:16:35.950Z,5.10
2022-11-12T03:19:03.018Z,4.90
2022-11-12T03:21:29.822Z,5.10
2022-11-12T03:23:56.538Z,5.17
2022-11-12T03:26:23.248Z,5.03
2022-11-12T03:28:51.390Z,5.60
2022-11-12T03:31:18.380Z,4.97
2022-11-12T03:33:45.276Z,5.60
2022-11-12T03:36:12.732Z,5.00
2022-11-12T03:38:39.504Z,5.10
2022-11-12T03:41:06.242Z,5.13
2022-11-12T03:43:33.114Z,5.97
2022-11-12T03:45:59.777Z,5.70
2022-11-12T03:48:26.776Z,6.10
2022-11-12T03:50:58.408Z,5.67
2022-11-12T03:53:26.325Z,6.10
2022-11-12T03:55:53.337Z,5.83
2022-11-12T03:58:20.080Z,5.00
2022-11-12T04:00:46.872Z,5.93
2022-11-12T04:03:13.603Z,5.83
2022-11-12T04:05:59.200Z,5.63
2022-11-12T04:08:38.193Z,6.10
2022-11-12T04:11:12.912Z,5.27
2022-11-12T04:13:42.052Z,5.40
2022-11-12T04:16:28.701Z,6.03
2022-11-12T04:19:16.276Z,6.10
2022-11-12T04:21:52.527Z,6.87
2022-11-12T04:24:39.299Z,7.17
2022-11-12T04:27:07.104Z,5.70
2022-11-12T04:29:52.635Z,5.93
2022-11-12T04:32:19.694Z,5.90
2022-11-12T04:34:46.953Z,6.17
2022-11-12T04:37:13.696Z,6.20
2022-11-12T04:39:40.390Z,6.17
2022-11-12T04:42:28.475Z,6.63
2022-11-12T04:45:02.459Z,5.57
2022-11-12T04:47:30.434Z,6.30
2022-11-12T04:49:57.770Z,5.67
2022-11-12T04:52:26.022Z,5.57
2022-11-12T04:54:53.514Z,6.17
2022-11-12T04:57:20.521Z,6.00
2022-11-12T04:59:47.872Z,6.43
2022-11-12T05:02:16.718Z,6.27
2022-11-12T05:04:43.854Z,6.07
2022-11-12T05:07:10.911Z,6.23
2022-11-12T05:09:38.122Z,6.40
2022-11-12T05:12:05.071Z,5.60
2022-11-12T05:14:32.023Z,6.50
2022-11-12T05:16:58.853Z,6.37
2022-11-12T05:19:25.615Z,6.07
2022-11-12T05:22:07.542Z,6.53
2022-11-12T05:24:42.266Z,6.43
2022-11-12T05:27:12.391Z,6.53
2022-11-12T05:29:39.543Z,6.80
2022-11-12T05:32:07.931Z,6.70
2022-11-12T05:34:34.871Z,6.70
2022-11-12T05:37:06.262Z,6.67
2022-11-12T05:39:33.097Z,7.03
2022-11-12T05:42:14.675Z,6.83
2022-11-12T05:44:41.728Z,6.03
2022-11-12T05:47:08.597Z,6.77
2022-11-12T05:49:35.294Z,7.60
2022-11-12T05:52:02.050Z,7.30
2022-11-12T05:54:28.826Z,6.23
2022-11-12T05:56:55.621Z,7.40
2022-11-12T05:59:22.531Z,7.00
2022-11-12T06:01:49.482Z,7.37
2022-11-12T06:04:16.890Z,7.50
2022-11-12T06:06:44.089Z,7.03
2022-11-12T06:09:12.042Z,7.00
2022-11-12T06:11:38.890Z,6.57
2022-11-12T06:14:06.188Z,7.10
2022-11-12T06:16:33.178Z,7.80
2022-11-12T06:18:59.952Z,7.30
2022-11-12T06:21:27.821Z,7.30
2022-11-12T06:23:57.535Z,7.50
2022-11-12T06:26:26.170Z,7.67
2022-11-12T06:28:53.219Z,6.90
2022-11-12T06:31:20.686Z,6.40
2022-11-12T06:33:47.847Z,7.23
2022-11-12T06:36:18.054Z,7.10
2022-11-12T06:38:45.449Z,6.83
2022-11-12T06:41:13.970Z,6.90
2022-11-12T06:43:41.349Z,7.10
2022-11-12T06:46:13.714Z,7.60
2022-11-12T06:48:41.282Z,6.77
2022-11-12T06:51:19.878Z,8.03
2022-11-12T06:53:47.634Z,6.87
2022-11-12T06:56:14.815Z,6.63
2022-11-12T06:58:42.151Z,6.23
2022-11-12T07:01:18.883Z,6.67
2022-11-12T07:03:45.938Z,6.20
2022-11-12T07:06:20.456Z,7.27
2022-11-12T07:08:49.131Z,7.10
2022-11-12T07:11:16.863Z,6.10
2022-11-12T07:13:47.040Z,6.20
2022-11-12T07:16:18.546Z,6.20
2022-11-12T07:18:46.891Z,5.53
2022-11-12T07:21:16.531Z,6.10
2022-11-12T07:23:43.426Z,5.83
2022-11-12T07:26:19.205Z,5.10
2022-11-12T07:28:46.756Z,5.93
2022-11-12T07:31:15.423Z,5.63
2022-11-12T07:33:42.984Z,5.37
2022-11-12T07:36:12.392Z,5.70
2022-11-12T07:38:40.763Z,6.23
2022-11-12T07:41:14.121Z,6.93
2022-11-12T07:43:42.064Z,5.50
2022-11-12T07:46:13.997Z,5.53
2022-11-12T07:48:41.665Z,6.60
2022-11-12T07:51:26.298Z,5.57
2022-11-12T07:53:59.030Z,5.90
2022-11-12T07:56:27.618Z,5.50
2022-11-12T07:58:54.302Z,6.27
2022-11-12T08:01:34.309Z,5.80
2022-11-12T08:04:02.531Z,6.50
2022-11-12T08:06:30.945Z,5.77
2022-11-12T08:08:59.691Z,6.30
2022-11-12T08:11:26.825Z,5.70
2022-11-12T08:13:53.740Z,6.10
2022-11-12T08:16:20.745Z,5.77
2022-11-12T08:18:47.897Z,5.50
2022-11-12T08:21:16.356Z,5.57
2022-11-12T08:23:43.801Z,5.30
2022-11-12T08:26:15.516Z,5.80
2022-11-12T08:28:42.337Z,5.37
2022-11-12T08:31:15.407Z,5.50
2022-11-12T08:33:42.685Z,5.40
2022-11-12T08:36:14.382Z,5.40
2022-11-12T08:38:41.328Z,5.20
2022-11-12T08:41:10.157Z,7.67
2022-11-12T08:43:38.144Z,5.60
2022-11-12T08:46:05.432Z,5.50
2022-11-12T08:48:34.096Z,6.00
2022-11-12T08:51:07.533Z,5.13
2022-11-12T08:53:34.785Z,4.83
2022-11-12T08:56:01.934Z,5.43
2022-11-12T08:58:29.200Z,4.90
2022-11-12T09:00:57.246Z,5.50
2022-11-12T09:03:25.927Z,5.50
2022-11-12T09:05:53.700Z,4.73
2022-11-12T09:08:23.647Z,5.40
2022-11-12T09:10:51.709Z,4.87
2022-11-12T09:13:19.079Z,4.70
2022-11-12T09:15:48.647Z,4.33
2022-11-12T09:18:18.006Z,4.50
2022-11-12T09:20:45.655Z,5.40
2022-11-12T09:23:17.737Z,3.90
2022-11-12T09:25:45.128Z,4.67
2022-11-12T09:28:15.006Z,4.90
2022-11-12T09:30:46.441Z,4.57
2022-11-12T09:33:17.918Z,4.87
2022-11-12T09:35:45.836Z,4.70
2022-11-12T09:38:14.904Z,4.30
2022-11-12T09:40:47.614Z,4.80
2022-11-12T09:43:31.843Z,4.17
2022-11-12T09:46:27.073Z,4.43
2022-11-12T09:49:21.040Z,4.30
2022-11-12T09:51:59.799Z,4.00
2022-11-12T09:54:32.892Z,4.40
2022-11-12T09:56:59.733Z,3.73
2022-11-12T09:59:33.620Z,4.40
2022-11-12T10:02:41.286Z,4.27
2022-11-12T10:05:08.020Z,4.37
2022-11-12T10:07:49.876Z,4.50
2022-11-12T10:10:24.136Z,4.67
2022-11-12T10:13:09.205Z,4.23
2022-11-12T10:16:27.754Z,4.00
2022-11-12T10:19:00.534Z,3.97
2022-11-12T10:21:41.238Z,4.70
2022-11-12T10:24:11.941Z,3.90
2022-11-12T10:26:40.310Z,3.90
2022-11-12T10:29:47.306Z,4.27
2022-11-12T10:32:16.242Z,5.07
2022-11-12T10:34:43.239Z,4.20
2022-11-12T10:37:15.093Z,4.23
2022-11-12T10:39:46.259Z,3.53
2022-11-12T10:42:16.240Z,3.90
2022-11-12T10:44:44.751Z,4.90
2022-11-12T10:47:42.826Z,3.83
2022-11-12T10:50:10.323Z,4.17
2022-11-12T10:52:37.646Z,4.30
2022-11-12T10:55:20.978Z,4.30
2022-11-12T10:58:06.550Z,4.40
2022-11-12T11:00:34.261Z,4.60
2022-11-12T11:03:06.182Z,3.70
2022-11-12T11:05:35.042Z,3.83
2022-11-12T11:08:03.589Z,5.30
2022-11-12T11:10:35.420Z,5.23
2022-11-12T11:13:22.172Z,4.70
2022-11-12T11:16:07.483Z,4.67
2022-11-12T11:18:38.062Z,4.13
2022-11-12T11:21:30.403Z,4.73
2022-11-12T11:24:36.727Z,4.70
2022-11-12T11:27:22.086Z,5.03
2022-11-12T11:30:07.698Z,5.00
2022-11-12T11:33:03.426Z,4.57
2022-11-12T11:36:26.832Z,4.77
2022-11-12T11:38:56.583Z,4.20
2022-11-12T11:41:42.193Z,4.83
2022-11-12T11:44:26.795Z,4.90
2022-11-12T11:47:14.504Z,5.23
2022-11-12T11:49:56.497Z,4.80
2022-11-12T11:52:29.134Z,5.03
2022-11-12T11:55:14.393Z,4.90
2022-11-12T11:58:04.132Z,5.20
2022-11-12T12:00:48.136Z,5.00
2022-11-12T12:03:29.162Z,4.63
2022-11-12T12:06:11.244Z,4.97
2022-11-12T12:08:53.262Z,5.07
2022-11-12T12:11:47.591Z,4.73
2022-11-12T12:14:32.969Z,5.33
2022-11-12T12:16:59.640Z,4.70
2022-11-12T12:19:53.694Z,4.70
2022-11-12T12:22:31.910Z,4.63
2022-11-12T12:25:11.136Z,4.87
2022-11-12T12:28:13.820Z,4.07
2022-11-12T12:30:47.814Z,4.47
2022-11-12T12:33:32.634Z,4.70
2022-11-12T12:36:08.830Z,4.10
2022-11-12T12:38:51.766Z,4.53
2022-11-12T12:41:27.907Z,4.40
2022-11-12T12:44:02.413Z,4.20
2022-11-12T12:46:37.090Z,4.10
2022-11-12T12:49:05.966Z,4.13
2022-11-12T12:51:34.254Z,4.40
2022-11-12T12:54:01.090Z,4.33
2022-11-12T12:56:30.601Z,3.90
2022-11-12T12:59:03.483Z,4.43
2022-11-12T13:01:34.138Z,4.37
2022-11-12T13:04:03.370Z,3.77
2022-11-12T13:06:33.565Z,3.70
2022-11-12T13:09:12.193Z,4.90
2022-11-12T13:12:01.520Z,3.60
2022-11-12T13:14:37.069Z,3.73
2022-11-12T13:17:12.671Z,4.20
2022-11-12T13:19:53.172Z,5.50
2022-11-12T13:22:19.830Z,3.60
2022-11-12T13:25:10.500Z,3.67
2022-11-12T13:27:40.176Z,4.20
2022-11-12T13:30:18.643Z,3.43
2022-11-12T13:32:48.090Z,3.60
2022-11-12T13:35:22.453Z,6.70
2022-11-12T13:38:01.874Z,4.50
2022-11-12T13:40:39.286Z,3.90
2022-11-12T13:43:14.782Z,4.00
2022-11-12T13:45:55.107Z,4.37
2022-11-12T13:48:44.256Z,3.80
2022-11-12T13:51:19.078Z,4.23
2022-11-12T13:53:46.350Z,4.03
2022-11-12T13:56:26.851Z,4.80
2022-11-12T13:58:53.814Z,4.47
2022-11-12T14:01:23.080Z,4.17
2022-11-12T14:03:53.109Z,4.17
2022-11-12T14:06:30.655Z,4.30
2022-11-12T14:09:24.402Z,4.03
2022-11-12T14:12:12.974Z,4.50
2022-11-12T14:15:04.107Z,3.60
2022-11-12T14:17:51.640Z,3.53
2022-11-12T14:20:36.264Z,3.93
2022-11-12T14:23:24.851Z,3.87
2022-11-12T14:25:56.709Z,3.23
2022-11-12T14:28:30.023Z,3.07
2022-11-12T14:30:58.589Z,3.50
2022-11-12T14:33:27.290Z,3.90
2022-11-12T14:36:03.160Z,3.47
2022-11-12T14:38:39.969Z,4.37
2022-11-12T14:41:18.457Z,3.63
2022-11-12T14:43:48.299Z,3.80
2022-11-12T14:46:32.692Z,3.03
2022-11-12T14:49:17.550Z,2.80
2022-11-12T14:52:03.551Z,3.70
2022-11-12T14:54:40.052Z,3.00
2022-11-12T14:57:09.753Z,4.07
2022-11-12T14:59:36.936Z,3.00
2022-11-12T15:02:34.566Z,2.83
2022-11-12T15:05:19.443Z,2.60
2022-11-12T15:07:59.058Z,3.10
2022-11-12T15:10:52.043Z,2.07
2022-11-12T15:13:23.002Z,2.60
2022-11-12T15:16:11.888Z,2.77
2022-11-12T15:18:40.476Z,6.67
2022-11-12T15:21:10.710Z,3.47
2022-11-12T15:23:46.939Z,3.40
2022-11-12T15:26:23.909Z,3.07
2022-11-12T15:29:15.489Z,2.47
2022-11-12T15:31:50.546Z,2.60
2022-11-12T15:34:27.828Z,3.33
2022-11-12T15:37:01.314Z,2.63
2022-11-12T15:39:29.350Z,3.60
2022-11-12T15:42:01.690Z,3.17
2022-11-12T15:44:34.257Z,3.40
2022-11-12T15:47:01.638Z,2.80
2022-11-12T15:49:28.416Z,3.30
2022-11-12T15:51:55.167Z,3.50
2022-11-12T15:54:21.967Z,2.30
2022-11-12T15:56:49.680Z,2.70
2022-11-12T15:59:18.226Z,2.33
2022-11-12T16:01:45.188Z,2.77
2022-11-12T16:04:12.843Z,2.93
2022-11-12T16:06:39.666Z,2.83
2022-11-12T16:09:06.513Z,2.90
2022-11-12T16:11:36.223Z,2.97
2022-11-12T16:14:05.271Z,3.67
2022-11-12T16:16:32.741Z,3.47
2022-11-12T16:18:59.473Z,3.20
2022-11-12T16:21:26.245Z,3.00
2022-11-12T16:23:52.990Z,3.20
2022-11-12T16:26:24.929Z,2.70
2022-11-12T16:28:51.684Z,3.50
2022-11-12T16:31:20.108Z,3.60
2022-11-12T16:33:46.964Z,3.67
2022-11-12T16:36:15.706Z,3.43
2022-11-12T16:38:42.850Z,3.73
2022-11-12T16:41:12.007Z,3.20
2022-11-12T16:43:39.419Z,2.87
2022-11-12T16:46:36.236Z,3.80
2022-11-12T16:49:03.425Z,3.00
2022-11-12T16:51:30.407Z,2.70
2022-11-12T16:53:57.382Z,2.93
2022-11-12T16:56:24.288Z,2.80
2022-11-12T16:58:52.092Z,2.53
2022-11-12T17:01:33.069Z,3.17
2022-11-12T17:04:00.016Z,3.50
2022-11-12T17:06:36.677Z,3.17
2022-11-12T17:09:08.405Z,2.67
2022-11-12T17:11:35.919Z,3.00
2022-11-12T17:14:04.373Z,4.60
2022-11-12T17:16:31.746Z,4.43
2022-11-12T17:19:01.267Z,3.23
2022-11-12T17:21:28.392Z,3.40
2022-11-12T17:23:57.229Z,3.23
2022-11-12T17:26:23.941Z,3.87
2022-11-12T17:28:55.567Z,4.20
2022-11-12T17:31:26.112Z,3.17
2022-11-12T17:33:53.405Z,3.40
2022-11-12T17:36:25.981Z,3.63
2022-11-12T17:38:57.284Z,2.80
2022-11-12T17:41:24.829Z,3.80
2022-11-12T17:43:56.335Z,3.60
2022-11-12T17:46:23.286Z,3.70
2022-11-12T17:48:50.337Z,3.67
2022-11-12T17:51:21.927Z,4.80
2022-11-12T17:53:49.146Z,4.63
2022-11-12T17:56:19.103Z,4.60
2022-11-12T17:58:47.181Z,3.77
2022-11-12T18:01:13.867Z,3.73
2022-11-12T18:03:41.789Z,3.80
2022-11-12T18:06:17.624Z,4.40
2022-11-12T18:08:44.866Z,4.33
2022-11-12T18:11:13.032Z,4.47
2022-11-12T18:13:39.913Z,3.50
2022-11-12T18:16:27.083Z,3.67
2022-11-12T18:18:55.229Z,3.57
2022-11-12T18:21:22.729Z,3.43
2022-11-12T18:23:49.922Z,3.50
2022-11-12T18:26:18.883Z,8.60
2022-11-12T18:28:51.520Z,3.60
2022-11-12T18:31:18.374Z,3.87
2022-11-12T18:33:45.345Z,4.23
2022-11-12T18:36:14.474Z,3.70
2022-11-12T18:38:41.148Z,4.20
2022-11-12T18:41:10.664Z,4.90
2022-11-12T18:43:37.923Z,4.13
2022-11-12T18:46:05.485Z,4.33
2022-11-12T18:48:33.702Z,5.20
2022-11-12T18:51:02.281Z,3.77
2022-11-12T18:53:30.205Z,4.40
2022-11-12T18:56:04.837Z,3.67
2022-11-12T18:58:35.086Z,3.57
2022-11-12T19:01:17.111Z,4.43
2022-11-12T19:03:44.496Z,4.37
2022-11-12T19:06:13.800Z,4.00
2022-11-12T19:08:41.060Z,4.00
2022-11-12T19:11:10.628Z,4.30
2022-11-12T19:13:37.971Z,5.10
2022-11-12T19:16:14.111Z,4.10
2022-11-12T19:18:42.065Z,3.87
2022-11-12T19:21:17.176Z,3.57
2022-11-12T19:23:44.363Z,4.03
2022-11-12T19:26:16.163Z,4.13
2022-11-12T19:28:44.074Z,4.10
2022-11-12T19:31:20.553Z,4.43
2022-11-12T19:33:50.266Z,5.17
2022-11-12T19:36:19.585Z,4.93
2022-11-12T19:38:46.738Z,5.30
2022-11-12T19:41:19.797Z,5.10
2022-11-12T19:43:48.003Z,5.20
2022-11-12T19:46:15.295Z,5.77
2022-11-12T19:48:42.425Z,5.40
2022-11-12T19:51:10.828Z,5.30
2022-11-12T19:53:47.521Z,5.63
2022-11-12T19:56:20.891Z,7.53
2022-11-12T19:58:48.716Z,6.13
2022-11-12T20:01:19.016Z,6.50
2022-11-12T20:03:46.077Z,5.43
2022-11-12T20:06:22.472Z,6.07
2022-11-12T20:08:49.238Z,5.90
2022-11-12T20:11:16.316Z,6.07
2022-11-12T20:13:43.075Z,5.57
2022-11-12T20:16:13.021Z,6.27
2022-11-12T20:18:40.112Z,5.67
2022-11-12T20:21:07.831Z,5.77
2022-11-12T20:23:35.829Z,5.47
2022-11-12T20:26:12.100Z,5.17
2022-11-12T20:28:40.656Z,5.83
2022-11-12T20:31:12.511Z,5.70
2022-11-12T20:33:42.446Z,6.30
2022-11-12T20:36:15.198Z,5.80
2022-11-12T20:38:44.454Z,6.97
2022-11-12T20:41:20.472Z,5.80
2022-11-12T20:43:47.722Z,5.90
2022-11-12T20:46:14.677Z,6.23
2022-11-12T20:48:43.552Z,6.57
2022-11-12T20:51:23.671Z,6.60
2022-11-12T20:53:55.946Z,6.13
2022-11-12T20:56:26.965Z,6.07
2022-11-12T20:58:54.190Z,6.50
2022-11-12T21:01:22.963Z,6.20
2022-11-12T21:03:49.924Z,6.43
2022-11-12T21:06:22.641Z,6.20
2022-11-12T21:08:49.851Z,6.70
2022-11-12T21:11:19.427Z,6.20
2022-11-12T21:13:46.406Z,6.50
2022-11-12T21:16:15.853Z,6.07
2022-11-12T21:18:43.086Z,6.10
2022-11-12T21:21:11.344Z,6.87
2022-11-12T21:23:40.086Z,6.63
2022-11-12T21:26:08.074Z,6.87
2022-11-12T21:28:38.038Z,5.97
2022-11-12T21:31:07.214Z,7.00
2022-11-12T21:33:34.645Z,6.10
2022-11-12T21:36:02.470Z,6.37
2022-11-12T21:38:29.987Z,6.33
2022-11-12T21:41:14.363Z,6.80
2022-11-12T21:43:43.312Z,6.27
2022-11-12T21:46:14.529Z,5.90
2022-11-12T21:48:41.648Z,6.47
2022-11-12T21:51:12.080Z,6.17
2022-11-12T21:53:39.931Z,6.80
2022-11-12T21:56:19.351Z,6.73
2022-11-12T21:58:46.920Z,5.60
2022-11-12T22:01:17.302Z,6.00
2022-11-12T22:03:44.890Z,5.60
2022-11-12T22:06:12.021Z,6.50
2022-11-12T22:08:41.263Z,6.20
2022-11-12T22:11:13.851Z,6.30
2022-11-12T22:13:41.338Z,6.63
2022-11-12T22:16:12.391Z,6.73
2022-11-12T22:18:39.830Z,6.87
2022-11-12T22:21:10.100Z,6.43
2022-11-12T22:23:36.918Z,7.33
2022-11-12T22:26:05.889Z,7.20
2022-11-12T22:28:36.139Z,6.77
2022-11-12T22:31:12.970Z,6.50
2022-11-12T22:33:40.117Z,7.00
2022-11-12T22:36:10.350Z,7.50
2022-11-12T22:38:40.360Z,6.33
2022-11-12T22:41:09.151Z,6.60
2022-11-12T22:43:39.055Z,6.50
2022-11-12T22:46:08.200Z,6.40
2022-11-12T22:48:35.212Z,6.47
2022-11-12T22:51:03.978Z,6.80
2022-11-12T22:53:31.710Z,6.77
2022-11-12T22:56:03.137Z,7.00
2022-11-12T22:58:30.459Z,7.40
2022-11-12T23:00:57.820Z,7.37
2022-11-12T23:03:24.602Z,7.30
2022-11-12T23:05:57.548Z,7.07
2022-11-12T23:08:25.090Z,7.23
2022-11-12T23:10:52.324Z,7.57
2022-11-12T23:13:19.117Z,7.17
2022-11-12T23:15:46.362Z,6.67
2022-11-12T23:18:13.141Z,7.23
2022-11-12T23:20:39.893Z,6.10
2022-11-12T23:23:06.608Z,7.17
2022-11-12T23:25:34.169Z,6.67
2022-11-12T23:28:01.090Z,7.30
2022-11-12T23:30:27.791Z,7.40
2022-11-12T23:32:54.453Z,7.00
2022-11-12T23:35:21.102Z,7.50
2022-11-12T23:37:47.824Z,6.73
2022-11-12T23:40:14.844Z,7.00
2022-11-12T23:42:41.490Z,6.67
2022-11-12T23:45:08.887Z,7.43
2022-11-12T23:47:35.685Z,7.13
2022-11-12T23:50:02.734Z,7.50
2022-11-12T23:52:29.510Z,7.40
2022-11-12T23:54:56.193Z,6.73
2022-11-12T23:57:22.921Z,7.03
2022-11-12T23:59:49.608Z,6.73
